sensor_id;sensor_type;location;lat;lon;timestamp;P1;durP1;ratioP1;P2;durP2;ratioP2
48881;SDS011;57063;51.406;-2.402;2023-07-08T00:00:26;11.82;;;4.63;;
48881;SDS011;57063;51.406;-2.402;2023-07-08T00:02:51;7.53;;;4.63;;
48881;SDS011;57063;51.406;-2.402;2023-07-08T00:05:18;7.53;;;4.70;;
48881;SDS011;57063;51.406;-2.402;2023-07-08T00:07:45;8.73;;;4.43;;
48881;SDS011;57063;51.406;-2.402;2023-07-08T00:10:12;9.15;;;4.95;;
48881;SDS011;57063;51.406;-2.402;2023-07-08T00:12:49;5.97;;;4.10;;
48881;SDS011;57063;51.406;-2.402;2023-07-08T00:15:16;8.20;;;5.00;;
48881;SDS011;57063;51.406;-2.402;2023-07-08T00:17:43;9.30;;;5.45;;
48881;SDS011;57063;51.406;-2.402;2023-07-08T00:20:10;6.68;;;4.60;;
48881;SDS011;57063;51.406;-2.402;2023-07-08T00:22:38;13.50;;;4.60;;
48881;SDS011;57063;51.406;-2.402;2023-07-08T00:25:06;8.10;;;4.80;;
48881;SDS011;57063;51.406;-2.402;2023-07-08T00:27:32;7.00;;;4.68;;
48881;SDS011;57063;51.406;-2.402;2023-07-08T00:29:57;11.20;;;5.18;;
48881;SDS011;57063;51.406;-2.402;2023-07-08T00:32:25;7.30;;;4.60;;
48881;SDS011;57063;51.406;-2.402;2023-07-08T00:34:51;8.45;;;4.78;;
48881;SDS011;57063;51.406;-2.402;2023-07-08T00:37:16;11.07;;;4.85;;
48881;SDS011;57063;51.406;-2.402;2023-07-08T00:39:41;6.20;;;4.28;;
48881;SDS011;57063;51.406;-2.402;2023-07-08T00:42:24;7.43;;;4.25;;
48881;SDS011;57063;51.406;-2.402;2023-07-08T00:44:50;11.43;;;4.47;;
48881;SDS011;57063;51.406;-2.402;2023-07-08T00:47:15;7.18;;;4.65;;
48881;SDS011;57063;51.406;-2.402;2023-07-08T00:54:52;9.15;;;4.70;;
48881;SDS011;57063;51.406;-2.402;2023-07-08T00:57:19;8.05;;;4.82;;
48881;SDS011;57063;51.406;-2.402;2023-07-08T00:59:48;10.15;;;4.93;;
48881;SDS011;57063;51.406;-2.402;2023-07-08T01:02:18;7.80;;;4.57;;
48881;SDS011;57063;51.406;-2.402;2023-07-08T01:04:54;8.65;;;4.78;;
48881;SDS011;57063;51.406;-2.402;2023-07-08T01:07:21;8.27;;;4.28;;
48881;SDS011;57063;51.406;-2.402;2023-07-08T01:09:51;5.95;;;3.92;;
48881;SDS011;57063;51.406;-2.402;2023-07-08T01:12:24;9.60;;;4.18;;
48881;SDS011;57063;51.406;-2.402;2023-07-08T01:14:55;6.63;;;4.15;;
48881;SDS011;57063;51.406;-2.402;2023-07-08T01:17:22;13.00;;;5.25;;
48881;SDS011;57063;51.406;-2.402;2023-07-08T01:19:48;9.13;;;4.00;;
48881;SDS011;57063;51.406;-2.402;2023-07-08T01:22:14;7.75;;;4.75;;
48881;SDS011;57063;51.406;-2.402;2023-07-08T01:24:43;11.02;;;4.75;;
48881;SDS011;57063;51.406;-2.402;2023-07-08T01:27:11;6.38;;;4.28;;
48881;SDS011;57063;51.406;-2.402;2023-07-08T01:29:39;11.13;;;4.32;;
48881;SDS011;57063;51.406;-2.402;2023-07-08T01:32:05;8.40;;;4.75;;
48881;SDS011;57063;51.406;-2.402;2023-07-08T01:34:33;9.88;;;4.65;;
48881;SDS011;57063;51.406;-2.402;2023-07-08T01:37:02;6.97;;;4.10;;
48881;SDS011;57063;51.406;-2.402;2023-07-08T01:39:31;12.35;;;4.63;;
48881;SDS011;57063;51.406;-2.402;2023-07-08T01:41:57;14.45;;;6.45;;
48881;SDS011;57063;51.406;-2.402;2023-07-08T01:46:52;9.02;;;4.28;;
48881;SDS011;57063;51.406;-2.402;2023-07-08T01:49:20;12.15;;;4.57;;
48881;SDS011;57063;51.406;-2.402;2023-07-08T01:51:46;8.63;;;4.20;;
48881;SDS011;57063;51.406;-2.402;2023-07-08T01:54:13;13.23;;;4.70;;
48881;SDS011;57063;51.406;-2.402;2023-07-08T01:56:38;9.85;;;4.35;;
48881;SDS011;57063;51.406;-2.402;2023-07-08T01:59:04;8.73;;;4.05;;
48881;SDS011;57063;51.406;-2.402;2023-07-08T02:01:29;7.57;;;4.40;;
48881;SDS011;57063;51.406;-2.402;2023-07-08T02:03:54;7.18;;;4.07;;
48881;SDS011;57063;51.406;-2.402;2023-07-08T02:06:20;5.28;;;4.07;;
48881;SDS011;57063;51.406;-2.402;2023-07-08T02:08:45;9.48;;;4.43;;
48881;SDS011;57063;51.406;-2.402;2023-07-08T02:11:10;9.60;;;3.97;;
48881;SDS011;57063;51.406;-2.402;2023-07-08T02:13:36;13.73;;;4.72;;
48881;SDS011;57063;51.406;-2.402;2023-07-08T02:16:01;9.73;;;4.45;;
48881;SDS011;57063;51.406;-2.402;2023-07-08T02:18:26;9.43;;;4.28;;
48881;SDS011;57063;51.406;-2.402;2023-07-08T02:20:52;11.55;;;4.93;;
48881;SDS011;57063;51.406;-2.402;2023-07-08T02:23:17;5.88;;;3.92;;
48881;SDS011;57063;51.406;-2.402;2023-07-08T02:25:52;10.13;;;3.72;;
48881;SDS011;57063;51.406;-2.402;2023-07-08T02:28:19;7.35;;;4.63;;
48881;SDS011;57063;51.406;-2.402;2023-07-08T02:30:45;8.95;;;4.43;;
48881;SDS011;57063;51.406;-2.402;2023-07-08T02:33:14;8.65;;;4.53;;
48881;SDS011;57063;51.406;-2.402;2023-07-08T02:35:42;6.43;;;4.00;;
48881;SDS011;57063;51.406;-2.402;2023-07-08T02:38:08;5.88;;;4.07;;
48881;SDS011;57063;51.406;-2.402;2023-07-08T02:40:33;7.18;;;3.88;;
48881;SDS011;57063;51.406;-2.402;2023-07-08T02:42:59;9.32;;;4.32;;
48881;SDS011;57063;51.406;-2.402;2023-07-08T02:45:24;14.80;;;4.55;;
48881;SDS011;57063;51.406;-2.402;2023-07-08T02:47:49;11.90;;;4.60;;
48881;SDS011;57063;51.406;-2.402;2023-07-08T02:50:15;6.22;;;4.05;;
48881;SDS011;57063;51.406;-2.402;2023-07-08T02:52:42;7.53;;;4.10;;
48881;SDS011;57063;51.406;-2.402;2023-07-08T02:55:07;6.03;;;3.92;;
48881;SDS011;57063;51.406;-2.402;2023-07-08T02:57:33;5.30;;;3.47;;
48881;SDS011;57063;51.406;-2.402;2023-07-08T02:59:58;7.60;;;3.92;;
48881;SDS011;57063;51.406;-2.402;2023-07-08T03:02:24;7.05;;;4.03;;
48881;SDS011;57063;51.406;-2.402;2023-07-08T03:04:49;8.77;;;4.25;;
48881;SDS011;57063;51.406;-2.402;2023-07-08T03:07:15;7.18;;;3.85;;
48881;SDS011;57063;51.406;-2.402;2023-07-08T03:09:41;8.38;;;4.10;;
48881;SDS011;57063;51.406;-2.402;2023-07-08T03:12:08;7.63;;;4.07;;
48881;SDS011;57063;51.406;-2.402;2023-07-08T03:14:35;7.88;;;4.20;;
48881;SDS011;57063;51.406;-2.402;2023-07-08T03:17:01;7.15;;;3.92;;
48881;SDS011;57063;51.406;-2.402;2023-07-08T03:19:26;8.73;;;4.65;;
48881;SDS011;57063;51.406;-2.402;2023-07-08T03:21:52;7.03;;;4.00;;
48881;SDS011;57063;51.406;-2.402;2023-07-08T03:24:17;7.80;;;4.03;;
48881;SDS011;57063;51.406;-2.402;2023-07-08T03:26:43;5.82;;;3.75;;
48881;SDS011;57063;51.406;-2.402;2023-07-08T03:29:18;6.93;;;4.20;;
48881;SDS011;57063;51.406;-2.402;2023-07-08T03:31:44;10.27;;;3.95;;
48881;SDS011;57063;51.406;-2.402;2023-07-08T03:34:10;7.90;;;4.03;;
48881;SDS011;57063;51.406;-2.402;2023-07-08T03:36:40;9.40;;;4.43;;
48881;SDS011;57063;51.406;-2.402;2023-07-08T03:39:14;9.07;;;4.63;;
48881;SDS011;57063;51.406;-2.402;2023-07-08T03:41:43;9.95;;;4.45;;
48881;SDS011;57063;51.406;-2.402;2023-07-08T03:44:09;9.40;;;3.88;;
48881;SDS011;57063;51.406;-2.402;2023-07-08T03:46:34;15.70;;;4.60;;
48881;SDS011;57063;51.406;-2.402;2023-07-08T03:48:59;13.65;;;4.30;;
48881;SDS011;57063;51.406;-2.402;2023-07-08T03:51:35;9.10;;;4.60;;
48881;SDS011;57063;51.406;-2.402;2023-07-08T03:54:02;12.13;;;4.68;;
48881;SDS011;57063;51.406;-2.402;2023-07-08T03:56:28;13.48;;;5.20;;
48881;SDS011;57063;51.406;-2.402;2023-07-08T03:58:53;9.00;;;4.20;;
48881;SDS011;57063;51.406;-2.402;2023-07-08T04:01:20;8.70;;;4.72;;
48881;SDS011;57063;51.406;-2.402;2023-07-08T04:03:48;11.32;;;4.43;;
48881;SDS011;57063;51.406;-2.402;2023-07-08T04:06:15;10.48;;;5.38;;
48881;SDS011;57063;51.406;-2.402;2023-07-08T04:08:40;8.45;;;4.10;;
48881;SDS011;57063;51.406;-2.402;2023-07-08T04:11:05;8.35;;;4.28;;
48881;SDS011;57063;51.406;-2.402;2023-07-08T04:13:31;10.75;;;5.05;;
48881;SDS011;57063;51.406;-2.402;2023-07-08T04:16:01;8.10;;;3.58;;
48881;SDS011;57063;51.406;-2.402;2023-07-08T04:18:29;10.57;;;4.70;;
48881;SDS011;57063;51.406;-2.402;2023-07-08T04:20:54;10.50;;;4.43;;
48881;SDS011;57063;51.406;-2.402;2023-07-08T04:23:20;6.80;;;3.97;;
48881;SDS011;57063;51.406;-2.402;2023-07-08T04:25:46;9.82;;;5.20;;
48881;SDS011;57063;51.406;-2.402;2023-07-08T04:28:12;11.38;;;5.35;;
48881;SDS011;57063;51.406;-2.402;2023-07-08T04:30:38;14.05;;;4.53;;
48881;SDS011;57063;51.406;-2.402;2023-07-08T04:33:09;12.65;;;4.40;;
48881;SDS011;57063;51.406;-2.402;2023-07-08T04:35:38;9.13;;;4.13;;
48881;SDS011;57063;51.406;-2.402;2023-07-08T04:38:07;8.75;;;4.72;;
48881;SDS011;57063;51.406;-2.402;2023-07-08T04:40:46;8.57;;;4.90;;
48881;SDS011;57063;51.406;-2.402;2023-07-08T04:43:12;9.23;;;4.15;;
48881;SDS011;57063;51.406;-2.402;2023-07-08T04:45:38;9.30;;;4.25;;
48881;SDS011;57063;51.406;-2.402;2023-07-08T04:48:05;7.30;;;4.00;;
48881;SDS011;57063;51.406;-2.402;2023-07-08T04:50:41;7.65;;;4.80;;
48881;SDS011;57063;51.406;-2.402;2023-07-08T04:53:08;9.07;;;4.47;;
48881;SDS011;57063;51.406;-2.402;2023-07-08T04:55:34;6.65;;;4.30;;
48881;SDS011;57063;51.406;-2.402;2023-07-08T04:58:01;11.00;;;4.55;;
48881;SDS011;57063;51.406;-2.402;2023-07-08T05:00:27;10.93;;;4.07;;
48881;SDS011;57063;51.406;-2.402;2023-07-08T05:02:52;10.20;;;4.53;;
48881;SDS011;57063;51.406;-2.402;2023-07-08T05:05:19;7.32;;;3.75;;
48881;SDS011;57063;51.406;-2.402;2023-07-08T05:07:44;10.15;;;3.80;;
48881;SDS011;57063;51.406;-2.402;2023-07-08T05:10:10;11.70;;;4.88;;
48881;SDS011;57063;51.406;-2.402;2023-07-08T05:12:35;8.90;;;3.83;;
48881;SDS011;57063;51.406;-2.402;2023-07-08T05:15:01;6.88;;;3.50;;
48881;SDS011;57063;51.406;-2.402;2023-07-08T05:17:27;6.75;;;4.03;;
48881;SDS011;57063;51.406;-2.402;2023-07-08T05:19:53;11.07;;;3.53;;
48881;SDS011;57063;51.406;-2.402;2023-07-08T05:22:19;5.80;;;3.78;;
48881;SDS011;57063;51.406;-2.402;2023-07-08T05:24:50;8.00;;;3.17;;
48881;SDS011;57063;51.406;-2.402;2023-07-08T05:27:17;7.32;;;4.07;;
48881;SDS011;57063;51.406;-2.402;2023-07-08T05:29:45;7.75;;;3.20;;
48881;SDS011;57063;51.406;-2.402;2023-07-08T05:32:11;7.22;;;3.72;;
48881;SDS011;57063;51.406;-2.402;2023-07-08T05:34:36;11.13;;;3.50;;
48881;SDS011;57063;51.406;-2.402;2023-07-08T05:37:02;9.60;;;4.75;;
48881;SDS011;57063;51.406;-2.402;2023-07-08T05:39:29;9.18;;;3.53;;
48881;SDS011;57063;51.406;-2.402;2023-07-08T05:41:55;6.65;;;4.07;;
48881;SDS011;57063;51.406;-2.402;2023-07-08T05:44:20;6.90;;;4.18;;
48881;SDS011;57063;51.406;-2.402;2023-07-08T05:46:45;8.50;;;3.45;;
48881;SDS011;57063;51.406;-2.402;2023-07-08T05:49:11;8.77;;;4.07;;
48881;SDS011;57063;51.406;-2.402;2023-07-08T05:51:36;13.13;;;4.32;;
48881;SDS011;57063;51.406;-2.402;2023-07-08T05:54:03;8.98;;;4.05;;
48881;SDS011;57063;51.406;-2.402;2023-07-08T05:56:28;6.45;;;3.17;;
48881;SDS011;57063;51.406;-2.402;2023-07-08T05:58:55;7.55;;;3.53;;
48881;SDS011;57063;51.406;-2.402;2023-07-08T06:01:21;11.50;;;3.53;;
48881;SDS011;57063;51.406;-2.402;2023-07-08T06:03:47;10.80;;;3.38;;
48881;SDS011;57063;51.406;-2.402;2023-07-08T06:06:13;12.10;;;2.97;;
48881;SDS011;57063;51.406;-2.402;2023-07-08T06:08:38;6.47;;;3.17;;
48881;SDS011;57063;51.406;-2.402;2023-07-08T06:11:04;8.57;;;3.00;;
48881;SDS011;57063;51.406;-2.402;2023-07-08T06:13:29;11.63;;;3.40;;
48881;SDS011;57063;51.406;-2.402;2023-07-08T06:15:55;15.35;;;4.45;;
48881;SDS011;57063;51.406;-2.402;2023-07-08T06:18:20;6.40;;;3.10;;
48881;SDS011;57063;51.406;-2.402;2023-07-08T06:20:53;7.60;;;2.92;;
48881;SDS011;57063;51.406;-2.402;2023-07-08T06:23:19;6.85;;;2.88;;
48881;SDS011;57063;51.406;-2.402;2023-07-08T06:25:45;10.77;;;3.30;;
48881;SDS011;57063;51.406;-2.402;2023-07-08T06:28:10;8.05;;;3.25;;
48881;SDS011;57063;51.406;-2.402;2023-07-08T06:30:35;7.70;;;3.13;;
48881;SDS011;57063;51.406;-2.402;2023-07-08T06:33:02;8.57;;;3.28;;
48881;SDS011;57063;51.406;-2.402;2023-07-08T06:35:28;7.88;;;2.85;;
48881;SDS011;57063;51.406;-2.402;2023-07-08T06:37:53;13.48;;;3.33;;
48881;SDS011;57063;51.406;-2.402;2023-07-08T06:40:18;9.82;;;3.30;;
48881;SDS011;57063;51.406;-2.402;2023-07-08T06:42:44;12.25;;;3.38;;
48881;SDS011;57063;51.406;-2.402;2023-07-08T06:45:10;8.90;;;2.90;;
48881;SDS011;57063;51.406;-2.402;2023-07-08T06:47:36;9.73;;;3.70;;
48881;SDS011;57063;51.406;-2.402;2023-07-08T06:50:01;6.20;;;3.25;;
48881;SDS011;57063;51.406;-2.402;2023-07-08T06:52:27;7.55;;;2.60;;
48881;SDS011;57063;51.406;-2.402;2023-07-08T06:54:59;10.65;;;3.45;;
48881;SDS011;57063;51.406;-2.402;2023-07-08T06:57:24;11.48;;;2.88;;
48881;SDS011;57063;51.406;-2.402;2023-07-08T06:59:50;6.22;;;3.20;;
48881;SDS011;57063;51.406;-2.402;2023-07-08T07:02:15;10.07;;;2.78;;
48881;SDS011;57063;51.406;-2.402;2023-07-08T07:04:42;11.90;;;3.58;;
48881;SDS011;57063;51.406;-2.402;2023-07-08T07:07:07;12.27;;;3.35;;
48881;SDS011;57063;51.406;-2.402;2023-07-08T07:09:32;10.30;;;3.53;;
48881;SDS011;57063;51.406;-2.402;2023-07-08T07:11:58;13.32;;;4.03;;
48881;SDS011;57063;51.406;-2.402;2023-07-08T07:14:23;8.07;;;3.30;;
48881;SDS011;57063;51.406;-2.402;2023-07-08T07:16:48;10.57;;;3.28;;
48881;SDS011;57063;51.406;-2.402;2023-07-08T07:19:14;7.13;;;3.47;;
48881;SDS011;57063;51.406;-2.402;2023-07-08T07:21:39;8.75;;;3.10;;
48881;SDS011;57063;51.406;-2.402;2023-07-08T07:24:05;6.88;;;2.80;;
48881;SDS011;57063;51.406;-2.402;2023-07-08T07:26:32;5.90;;;2.85;;
48881;SDS011;57063;51.406;-2.402;2023-07-08T07:28:57;8.27;;;3.58;;
48881;SDS011;57063;51.406;-2.402;2023-07-08T07:31:23;9.57;;;3.20;;
48881;SDS011;57063;51.406;-2.402;2023-07-08T07:33:48;11.20;;;3.50;;
48881;SDS011;57063;51.406;-2.402;2023-07-08T07:36:13;10.57;;;4.03;;
48881;SDS011;57063;51.406;-2.402;2023-07-08T07:38:39;12.05;;;2.92;;
48881;SDS011;57063;51.406;-2.402;2023-07-08T07:41:04;9.85;;;3.20;;
48881;SDS011;57063;51.406;-2.402;2023-07-08T07:43:32;8.45;;;2.63;;
48881;SDS011;57063;51.406;-2.402;2023-07-08T07:45:58;9.68;;;2.88;;
48881;SDS011;57063;51.406;-2.402;2023-07-08T07:48:24;6.90;;;2.85;;
48881;SDS011;57063;51.406;-2.402;2023-07-08T07:50:50;6.75;;;2.72;;
48881;SDS011;57063;51.406;-2.402;2023-07-08T07:53:16;8.07;;;3.20;;
48881;SDS011;57063;51.406;-2.402;2023-07-08T07:55:42;7.30;;;2.42;;
48881;SDS011;57063;51.406;-2.402;2023-07-08T07:58:07;5.90;;;2.33;;
48881;SDS011;57063;51.406;-2.402;2023-07-08T08:00:33;7.60;;;2.47;;
48881;SDS011;57063;51.406;-2.402;2023-07-08T08:02:59;10.95;;;3.05;;
48881;SDS011;57063;51.406;-2.402;2023-07-08T08:05:24;8.90;;;2.60;;
48881;SDS011;57063;51.406;-2.402;2023-07-08T08:07:50;6.38;;;3.08;;
48881;SDS011;57063;51.406;-2.402;2023-07-08T08:10:15;8.02;;;2.85;;
48881;SDS011;57063;51.406;-2.402;2023-07-08T08:12:41;8.95;;;3.38;;
48881;SDS011;57063;51.406;-2.402;2023-07-08T08:15:06;7.97;;;2.78;;
48881;SDS011;57063;51.406;-2.402;2023-07-08T08:17:32;8.38;;;2.70;;
48881;SDS011;57063;51.406;-2.402;2023-07-08T08:19:58;6.50;;;2.75;;
48881;SDS011;57063;51.406;-2.402;2023-07-08T08:22:23;5.53;;;2.30;;
48881;SDS011;57063;51.406;-2.402;2023-07-08T08:24:49;14.55;;;3.42;;
48881;SDS011;57063;51.406;-2.402;2023-07-08T08:27:14;7.75;;;2.83;;
48881;SDS011;57063;51.406;-2.402;2023-07-08T08:29:40;11.48;;;2.90;;
48881;SDS011;57063;51.406;-2.402;2023-07-08T08:32:05;10.30;;;2.83;;
48881;SDS011;57063;51.406;-2.402;2023-07-08T08:34:31;9.57;;;3.10;;
48881;SDS011;57063;51.406;-2.402;2023-07-08T08:36:57;9.05;;;3.40;;
48881;SDS011;57063;51.406;-2.402;2023-07-08T08:39:22;8.82;;;2.78;;
48881;SDS011;57063;51.406;-2.402;2023-07-08T08:41:49;8.50;;;2.47;;
48881;SDS011;57063;51.406;-2.402;2023-07-08T08:44:19;6.80;;;2.88;;
48881;SDS011;57063;51.406;-2.402;2023-07-08T08:49:50;9.77;;;4.57;;
48881;SDS011;57063;51.406;-2.402;2023-07-08T08:52:21;7.75;;;2.83;;
48881;SDS011;57063;51.406;-2.402;2023-07-08T08:54:47;7.78;;;3.35;;
48881;SDS011;57063;51.406;-2.402;2023-07-08T08:59:54;5.57;;;2.60;;
48881;SDS011;57063;51.406;-2.402;2023-07-08T09:02:36;8.98;;;3.55;;
48881;SDS011;57063;51.406;-2.402;2023-07-08T09:05:06;7.05;;;3.42;;
48881;SDS011;57063;51.406;-2.402;2023-07-08T09:07:43;7.47;;;2.83;;
48881;SDS011;57063;51.406;-2.402;2023-07-08T09:10:12;6.55;;;2.60;;
48881;SDS011;57063;51.406;-2.402;2023-07-08T09:12:44;6.40;;;3.25;;
48881;SDS011;57063;51.406;-2.402;2023-07-08T09:15:13;8.07;;;3.53;;
48881;SDS011;57063;51.406;-2.402;2023-07-08T09:17:40;8.25;;;3.08;;
48881;SDS011;57063;51.406;-2.402;2023-07-08T09:22:50;9.38;;;3.00;;
48881;SDS011;57063;51.406;-2.402;2023-07-08T09:27:57;9.65;;;2.70;;
48881;SDS011;57063;51.406;-2.402;2023-07-08T09:30:23;7.93;;;3.22;;
48881;SDS011;57063;51.406;-2.402;2023-07-08T09:32:50;13.88;;;3.40;;
48881;SDS011;57063;51.406;-2.402;2023-07-08T09:35:23;10.88;;;2.85;;
48881;SDS011;57063;51.406;-2.402;2023-07-08T09:37:51;9.05;;;2.65;;
48881;SDS011;57063;51.406;-2.402;2023-07-08T09:42:42;10.57;;;2.95;;
48881;SDS011;57063;51.406;-2.402;2023-07-08T09:45:14;7.10;;;3.08;;
48881;SDS011;57063;51.406;-2.402;2023-07-08T09:47:40;6.95;;;2.72;;
48881;SDS011;57063;51.406;-2.402;2023-07-08T09:50:25;8.57;;;2.47;;
48881;SDS011;57063;51.406;-2.402;2023-07-08T09:52:53;8.82;;;3.28;;
48881;SDS011;57063;51.406;-2.402;2023-07-08T09:55:22;7.03;;;3.42;;
48881;SDS011;57063;51.406;-2.402;2023-07-08T09:57:49;4.93;;;2.90;;
48881;SDS011;57063;51.406;-2.402;2023-07-08T10:00:17;12.98;;;2.72;;
48881;SDS011;57063;51.406;-2.402;2023-07-08T10:02:45;8.00;;;3.08;;
48881;SDS011;57063;51.406;-2.402;2023-07-08T10:07:43;8.68;;;2.88;;
48881;SDS011;57063;51.406;-2.402;2023-07-08T10:10:11;5.28;;;2.28;;
48881;SDS011;57063;51.406;-2.402;2023-07-08T10:12:40;11.48;;;2.72;;
48881;SDS011;57063;51.406;-2.402;2023-07-08T10:15:17;9.30;;;2.55;;
48881;SDS011;57063;51.406;-2.402;2023-07-08T10:17:47;14.35;;;2.50;;
48881;SDS011;57063;51.406;-2.402;2023-07-08T10:20:12;6.68;;;2.78;;
48881;SDS011;57063;51.406;-2.402;2023-07-08T10:22:41;8.82;;;2.80;;
48881;SDS011;57063;51.406;-2.402;2023-07-08T10:30:54;11.75;;;2.50;;
48881;SDS011;57063;51.406;-2.402;2023-07-08T10:44:26;11.55;;;3.75;;
48881;SDS011;57063;51.406;-2.402;2023-07-08T10:49:50;7.10;;;2.88;;
48881;SDS011;57063;51.406;-2.402;2023-07-08T11:06:29;8.80;;;2.83;;
48881;SDS011;57063;51.406;-2.402;2023-07-08T11:09:00;6.20;;;2.40;;
48881;SDS011;57063;51.406;-2.402;2023-07-08T11:11:32;9.18;;;3.00;;
48881;SDS011;57063;51.406;-2.402;2023-07-08T11:14:06;10.10;;;3.00;;
48881;SDS011;57063;51.406;-2.402;2023-07-08T11:16:45;11.93;;;3.65;;
48881;SDS011;57063;51.406;-2.402;2023-07-08T11:22:03;10.63;;;3.88;;
48881;SDS011;57063;51.406;-2.402;2023-07-08T11:24:45;10.05;;;4.07;;
48881;SDS011;57063;51.406;-2.402;2023-07-08T11:27:20;10.07;;;3.20;;
48881;SDS011;57063;51.406;-2.402;2023-07-08T11:32:17;10.90;;;2.83;;
48881;SDS011;57063;51.406;-2.402;2023-07-08T11:34:46;8.40;;;2.88;;
48881;SDS011;57063;51.406;-2.402;2023-07-08T11:37:14;11.48;;;2.95;;
48881;SDS011;57063;51.406;-2.402;2023-07-08T11:42:16;9.38;;;3.35;;
48881;SDS011;57063;51.406;-2.402;2023-07-08T11:44:52;8.10;;;3.35;;
48881;SDS011;57063;51.406;-2.402;2023-07-08T11:47:26;13.13;;;3.67;;
48881;SDS011;57063;51.406;-2.402;2023-07-08T11:49:54;8.80;;;3.00;;
48881;SDS011;57063;51.406;-2.402;2023-07-08T11:52:21;11.68;;;3.22;;
48881;SDS011;57063;51.406;-2.402;2023-07-08T11:54:48;13.52;;;3.55;;
48881;SDS011;57063;51.406;-2.402;2023-07-08T12:00:13;14.18;;;4.25;;
48881;SDS011;57063;51.406;-2.402;2023-07-08T12:02:50;11.35;;;3.30;;
48881;SDS011;57063;51.406;-2.402;2023-07-08T12:05:30;11.25;;;2.78;;
48881;SDS011;57063;51.406;-2.402;2023-07-08T12:07:57;14.50;;;4.82;;
48881;SDS011;57063;51.406;-2.402;2023-07-08T12:13:15;14.38;;;3.70;;
48881;SDS011;57063;51.406;-2.402;2023-07-08T12:15:42;9.85;;;3.60;;
48881;SDS011;57063;51.406;-2.402;2023-07-08T12:20:34;16.02;;;3.08;;
48881;SDS011;57063;51.406;-2.402;2023-07-08T12:23:02;12.13;;;3.42;;
48881;SDS011;57063;51.406;-2.402;2023-07-08T12:25:34;15.85;;;3.70;;
48881;SDS011;57063;51.406;-2.402;2023-07-08T12:28:00;16.73;;;4.22;;
48881;SDS011;57063;51.406;-2.402;2023-07-08T12:30:27;12.63;;;3.28;;
48881;SDS011;57063;51.406;-2.402;2023-07-08T12:32:54;17.52;;;5.35;;
48881;SDS011;57063;51.406;-2.402;2023-07-08T12:35:25;11.90;;;3.65;;
48881;SDS011;57063;51.406;-2.402;2023-07-08T12:37:53;14.10;;;3.90;;
48881;SDS011;57063;51.406;-2.402;2023-07-08T12:40:22;9.25;;;3.40;;
48881;SDS011;57063;51.406;-2.402;2023-07-08T12:42:47;9.43;;;3.53;;
48881;SDS011;57063;51.406;-2.402;2023-07-08T12:45:15;13.70;;;4.20;;
48881;SDS011;57063;51.406;-2.402;2023-07-08T12:47:43;13.95;;;4.57;;
48881;SDS011;57063;51.406;-2.402;2023-07-08T12:50:10;12.68;;;4.65;;
48881;SDS011;57063;51.406;-2.402;2023-07-08T12:52:36;11.30;;;3.60;;
48881;SDS011;57063;51.406;-2.402;2023-07-08T12:55:01;10.90;;;3.92;;
48881;SDS011;57063;51.406;-2.402;2023-07-08T12:57:27;15.32;;;4.55;;
48881;SDS011;57063;51.406;-2.402;2023-07-08T12:59:53;10.75;;;3.53;;
48881;SDS011;57063;51.406;-2.402;2023-07-08T13:02:19;12.75;;;3.35;;
48881;SDS011;57063;51.406;-2.402;2023-07-08T13:04:47;12.45;;;4.32;;
48881;SDS011;57063;51.406;-2.402;2023-07-08T13:07:22;9.50;;;3.65;;
48881;SDS011;57063;51.406;-2.402;2023-07-08T13:09:56;11.05;;;3.88;;
48881;SDS011;57063;51.406;-2.402;2023-07-08T13:12:21;10.18;;;3.50;;
48881;SDS011;57063;51.406;-2.402;2023-07-08T13:14:49;7.50;;;3.05;;
48881;SDS011;57063;51.406;-2.402;2023-07-08T13:17:17;9.25;;;3.40;;
48881;SDS011;57063;51.406;-2.402;2023-07-08T13:19:43;13.98;;;3.42;;
48881;SDS011;57063;51.406;-2.402;2023-07-08T13:22:11;9.65;;;3.30;;
48881;SDS011;57063;51.406;-2.402;2023-07-08T13:24:39;6.63;;;2.75;;
48881;SDS011;57063;51.406;-2.402;2023-07-08T13:27:06;8.80;;;2.78;;
48881;SDS011;57063;51.406;-2.402;2023-07-08T13:29:35;16.52;;;3.30;;
48881;SDS011;57063;51.406;-2.402;2023-07-08T13:32:03;8.82;;;3.10;;
48881;SDS011;57063;51.406;-2.402;2023-07-08T13:34:30;7.70;;;3.55;;
48881;SDS011;57063;51.406;-2.402;2023-07-08T13:36:57;9.02;;;3.10;;
48881;SDS011;57063;51.406;-2.402;2023-07-08T13:39:27;15.15;;;3.97;;
48881;SDS011;57063;51.406;-2.402;2023-07-08T13:41:57;10.65;;;3.38;;
48881;SDS011;57063;51.406;-2.402;2023-07-08T13:44:24;15.20;;;3.72;;
48881;SDS011;57063;51.406;-2.402;2023-07-08T13:49:25;7.55;;;2.65;;
48881;SDS011;57063;51.406;-2.402;2023-07-08T13:54:44;6.30;;;2.42;;
48881;SDS011;57063;51.406;-2.402;2023-07-08T13:57:16;4.85;;;1.90;;
48881;SDS011;57063;51.406;-2.402;2023-07-08T13:59:43;6.65;;;2.38;;
48881;SDS011;57063;51.406;-2.402;2023-07-08T14:02:16;6.00;;;2.25;;
48881;SDS011;57063;51.406;-2.402;2023-07-08T14:04:44;5.13;;;2.08;;
48881;SDS011;57063;51.406;-2.402;2023-07-08T14:07:15;6.68;;;2.28;;
48881;SDS011;57063;51.406;-2.402;2023-07-08T14:09:42;7.50;;;2.33;;
48881;SDS011;57063;51.406;-2.402;2023-07-08T14:12:08;3.08;;;1.73;;
48881;SDS011;57063;51.406;-2.402;2023-07-08T14:14:34;5.22;;;2.10;;
48881;SDS011;57063;51.406;-2.402;2023-07-08T14:16:59;8.50;;;1.88;;
48881;SDS011;57063;51.406;-2.402;2023-07-08T14:19:29;5.38;;;1.90;;
48881;SDS011;57063;51.406;-2.402;2023-07-08T14:22:01;11.77;;;3.28;;
48881;SDS011;57063;51.406;-2.402;2023-07-08T14:24:47;5.38;;;2.20;;
48881;SDS011;57063;51.406;-2.402;2023-07-08T14:27:13;8.73;;;2.30;;
48881;SDS011;57063;51.406;-2.402;2023-07-08T14:29:39;5.15;;;1.98;;
48881;SDS011;57063;51.406;-2.402;2023-07-08T14:32:07;8.38;;;2.38;;
48881;SDS011;57063;51.406;-2.402;2023-07-08T14:34:38;6.47;;;1.98;;
48881;SDS011;57063;51.406;-2.402;2023-07-08T14:37:08;7.05;;;2.40;;
48881;SDS011;57063;51.406;-2.402;2023-07-08T14:39:38;7.13;;;2.42;;
48881;SDS011;57063;51.406;-2.402;2023-07-08T14:42:04;8.32;;;3.00;;
48881;SDS011;57063;51.406;-2.402;2023-07-08T14:44:34;7.25;;;2.40;;
48881;SDS011;57063;51.406;-2.402;2023-07-08T14:47:01;9.18;;;2.45;;
48881;SDS011;57063;51.406;-2.402;2023-07-08T14:49:27;8.77;;;2.58;;
48881;SDS011;57063;51.406;-2.402;2023-07-08T14:51:53;10.07;;;3.05;;
48881;SDS011;57063;51.406;-2.402;2023-07-08T14:54:18;11.10;;;2.50;;
48881;SDS011;57063;51.406;-2.402;2023-07-08T14:56:45;10.00;;;2.90;;
48881;SDS011;57063;51.406;-2.402;2023-07-08T14:59:15;10.23;;;2.80;;
48881;SDS011;57063;51.406;-2.402;2023-07-08T15:01:45;6.60;;;2.67;;
48881;SDS011;57063;51.406;-2.402;2023-07-08T15:04:11;5.00;;;2.17;;
48881;SDS011;57063;51.406;-2.402;2023-07-08T15:06:37;13.07;;;2.63;;
48881;SDS011;57063;51.406;-2.402;2023-07-08T15:09:03;11.45;;;2.80;;
48881;SDS011;57063;51.406;-2.402;2023-07-08T15:11:30;8.63;;;3.47;;
48881;SDS011;57063;51.406;-2.402;2023-07-08T15:13:56;11.32;;;3.33;;
48881;SDS011;57063;51.406;-2.402;2023-07-08T15:16:22;7.55;;;2.53;;
48881;SDS011;57063;51.406;-2.402;2023-07-08T15:18:47;8.07;;;3.03;;
48881;SDS011;57063;51.406;-2.402;2023-07-08T15:21:13;11.05;;;3.35;;
48881;SDS011;57063;51.406;-2.402;2023-07-08T15:23:40;8.23;;;3.10;;
48881;SDS011;57063;51.406;-2.402;2023-07-08T15:26:10;5.57;;;2.20;;
48881;SDS011;57063;51.406;-2.402;2023-07-08T15:28:46;10.73;;;2.72;;
48881;SDS011;57063;51.406;-2.402;2023-07-08T15:31:17;8.20;;;2.72;;
48881;SDS011;57063;51.406;-2.402;2023-07-08T15:33:45;8.05;;;3.00;;
48881;SDS011;57063;51.406;-2.402;2023-07-08T15:36:10;8.27;;;2.65;;
48881;SDS011;57063;51.406;-2.402;2023-07-08T15:38:37;11.85;;;2.88;;
48881;SDS011;57063;51.406;-2.402;2023-07-08T15:41:04;6.82;;;2.83;;
48881;SDS011;57063;51.406;-2.402;2023-07-08T15:43:29;14.20;;;3.38;;
48881;SDS011;57063;51.406;-2.402;2023-07-08T15:45:55;12.13;;;3.72;;
48881;SDS011;57063;51.406;-2.402;2023-07-08T15:48:20;9.57;;;3.50;;
48881;SDS011;57063;51.406;-2.402;2023-07-08T15:50:46;9.52;;;2.83;;